Terminal Aerodrome Forecast
Issued by NWS

Home | Current Version | Previous Version | Text Only | Print | Product List | Glossary On
Versions: 1 2 3 4 5 6 7 8 9 10 11 12 13 14 15
000
FTUS45 KBOI 272336
TAFJER
TAF
KJER 272336Z 2800/2824 25023G32KT P6SM SCT040 BKN050
     FM280300 24015G25KT P6SM FEW030
     FM281000 24015KT P6SM BKN007
     FM281500 25015G25KT P6SM FEW007 SCT070=

USA.gov is the U.S. government's official web portal to all federal, state and local government web resources and services.